Time;durP1;ratioP1;P1;durP2;ratioP2;P2;SDS_P1;SDS_P2;PMS_P1;PMS_P2;Temp;Humidity;BMP_temperature;BMP_pressure;BME280_temperature;BME280_humidity;BME280_pressure;Samples;Min_cycle;Max_cycle;Signal;HPM_P1;HPM_P2
2021/01/08 00:00:19;;;;;;;38.30;18.90;;;1.20;99.90;;;;;;4366602;32;20159;-71
2021/01/08 00:02:47;;;;;;;36.50;19.60;;;1.20;99.90;;;;;;4366579;32;20170;-71
2021/01/08 00:05:13;;;;;;;42.47;20.07;;;1.20;99.90;;;;;;4367636;32;20132;-74
2021/01/08 00:07:40;;;;;;;39.53;19.53;;;1.20;99.90;;;;;;4366418;32;20231;-72
2021/01/08 00:10:08;;;;;;;40.40;19.13;;;1.20;99.90;;;;;;4367898;32;20175;-72
2021/01/08 00:12:36;;;;;;;39.50;19.47;;;1.20;99.90;;;;;;4366434;32;20561;-72
2021/01/08 00:15:07;;;;;;;41.07;19.07;;;1.20;99.90;;;;;;4367033;32;20136;-72
2021/01/08 00:17:34;;;;;;;39.30;19.63;;;1.20;99.90;;;;;;4367328;32;20333;-73
2021/01/08 00:20:01;;;;;;;42.77;19.40;;;1.20;99.90;;;;;;4368027;32;20140;-71
2021/01/08 00:22:28;;;;;;;40.80;19.33;;;1.20;99.90;;;;;;4367766;32;20152;-73
2021/01/08 00:24:54;;;;;;;41.27;19.00;;;1.20;99.90;;;;;;4367603;32;20242;-71
2021/01/08 00:27:22;;;;;;;42.57;19.80;;;1.20;99.90;;;;;;4366212;32;20163;-72
2021/01/08 00:29:50;;;;;;;42.33;19.10;;;1.20;99.90;;;;;;4367474;32;20230;-72
2021/01/08 00:32:19;;;;;;;45.53;20.10;;;1.20;99.90;;;;;;4366149;32;20189;-72
2021/01/08 00:34:46;;;;;;;40.77;18.83;;;1.20;99.90;;;;;;4367533;32;20207;-72
2021/01/08 00:37:13;;;;;;;41.20;19.23;;;1.20;99.90;;;;;;4367488;32;20157;-71
2021/01/08 00:39:41;;;;;;;40.57;19.67;;;1.30;99.90;;;;;;4366585;32;20141;-71
2021/01/08 00:42:08;;;;;;;42.97;19.93;;;1.30;99.90;;;;;;4366071;32;20167;-71
2021/01/08 00:44:35;;;;;;;41.40;19.07;;;1.30;99.90;;;;;;4366041;32;20194;-71
2021/01/08 00:47:04;;;;;;;44.47;20.20;;;1.30;99.90;;;;;;4367207;32;20142;-71
2021/01/08 00:49:31;;;;;;;44.93;21.00;;;1.20;99.90;;;;;;4366841;32;20152;-71
2021/01/08 00:51:57;;;;;;;39.50;18.67;;;1.10;99.90;;;;;;4365913;32;20156;-72
2021/01/08 00:54:24;;;;;;;42.70;20.30;;;1.20;99.90;;;;;;4366969;32;20175;-71
2021/01/08 00:56:53;;;;;;;42.77;20.37;;;1.20;99.90;;;;;;4364641;33;20463;-72
2021/01/08 00:59:20;;;;;;;42.07;19.97;;;1.20;99.90;;;;;;4353880;32;20209;-75
2021/01/08 01:01:46;;;;;;;44.73;21.23;;;1.20;99.90;;;;;;4365328;32;20175;-72
2021/01/08 01:04:13;;;;;;;40.40;20.07;;;1.30;99.90;;;;;;4367173;32;20137;-72
2021/01/08 01:06:40;;;;;;;45.60;21.17;;;1.30;99.90;;;;;;4366275;32;20199;-71
2021/01/08 01:09:07;;;;;;;44.10;20.27;;;1.40;99.90;;;;;;4365704;32;20151;-71
2021/01/08 01:11:35;;;;;;;46.90;20.70;;;1.30;99.90;;;;;;4363746;32;20206;-71
2021/01/08 01:14:01;;;;;;;46.50;21.17;;;1.30;99.90;;;;;;4368138;32;20212;-71
2021/01/08 01:16:28;;;;;;;46.73;20.57;;;1.20;99.90;;;;;;4365287;32;20192;-71
2021/01/08 01:18:57;;;;;;;43.07;19.97;;;1.20;99.90;;;;;;4365144;32;20222;-71
2021/01/08 01:21:25;;;;;;;49.87;22.00;;;1.20;99.90;;;;;;4364521;32;20325;-71
2021/01/08 01:23:52;;;;;;;46.07;20.53;;;1.10;99.90;;;;;;4364159;32;20486;-72
2021/01/08 01:26:19;;;;;;;48.30;21.73;;;1.20;99.90;;;;;;4364775;32;20136;-71
2021/01/08 01:28:45;;;;;;;47.87;21.50;;;1.20;99.90;;;;;;4349568;33;20231;-71
2021/01/08 01:31:12;;;;;;;44.73;21.03;;;1.30;99.90;;;;;;4365534;32;20449;-71
2021/01/08 01:33:39;;;;;;;50.53;22.07;;;1.30;99.90;;;;;;4365493;32;20176;-71
2021/01/08 01:36:09;;;;;;;44.63;20.80;;;1.20;99.90;;;;;;4372628;32;20151;-71
2021/01/08 01:38:36;;;;;;;44.43;20.63;;;1.10;99.90;;;;;;4367983;32;20211;-73
2021/01/08 01:41:04;;;;;;;49.43;21.80;;;1.20;99.90;;;;;;4369555;32;20144;-72
2021/01/08 01:43:30;;;;;;;44.27;20.93;;;1.20;99.90;;;;;;4370554;32;20133;-71
2021/01/08 01:45:57;;;;;;;43.67;20.23;;;1.30;99.90;;;;;;4371470;32;20151;-71
2021/01/08 01:48:24;;;;;;;45.70;19.77;;;1.20;99.90;;;;;;4368060;32;20183;-71
2021/01/08 01:50:52;;;;;;;42.90;19.53;;;1.30;99.90;;;;;;4369433;32;20469;-71
2021/01/08 01:53:19;;;;;;;40.70;19.03;;;1.30;99.90;;;;;;4371271;32;20484;-72
2021/01/08 01:55:47;;;;;;;43.27;19.93;;;1.30;99.90;;;;;;4366738;32;20406;-74
2021/01/08 01:58:15;;;;;;;44.20;19.90;;;1.30;99.90;;;;;;4366815;32;20166;-71
2021/01/08 02:00:42;;;;;;;39.70;19.20;;;1.30;99.90;;;;;;4367219;32;20156;-72
2021/01/08 02:03:16;;;;;;;44.83;20.47;;;1.20;99.90;;;;;;4370606;32;20355;-71
2021/01/08 02:05:44;;;;;;;41.73;20.07;;;1.20;99.90;;;;;;4370404;32;20148;-72
2021/01/08 02:08:15;;;;;;;43.20;20.43;;;1.30;99.90;;;;;;4371378;32;20213;-71
2021/01/08 02:10:57;;;;;;;41.40;19.90;;;1.20;99.90;;;;;;4370426;32;20148;-71
2021/01/08 02:13:58;;;;;;;41.50;20.03;;;1.30;99.90;;;;;;4370442;32;20179;-73
2021/01/08 02:16:28;;;;;;;44.13;19.00;;;1.20;99.90;;;;;;4356778;32;20206;-73
2021/01/08 02:18:56;;;;;;;43.43;19.50;;;1.30;99.90;;;;;;4371764;32;20175;-71
2021/01/08 02:21:38;;;;;;;41.40;19.57;;;1.30;99.90;;;;;;4371815;32;20463;-72
2021/01/08 02:24:09;;;;;;;42.67;18.47;;;1.30;99.90;;;;;;4368797;32;20156;-73
2021/01/08 02:26:37;;;;;;;39.23;18.43;;;1.20;99.90;;;;;;4370714;32;20402;-72
2021/01/08 02:29:04;;;;;;;42.60;19.50;;;1.20;99.90;;;;;;4370625;32;20415;-72
2021/01/08 02:31:31;;;;;;;41.77;19.83;;;1.30;99.90;;;;;;4372176;32;20167;-70
2021/01/08 02:33:58;;;;;;;42.80;20.43;;;1.20;99.90;;;;;;4369897;32;20482;-70
2021/01/08 02:36:26;;;;;;;40.10;19.60;;;1.30;99.90;;;;;;4357618;32;20211;-69
2021/01/08 02:38:54;;;;;;;42.80;19.33;;;1.40;99.90;;;;;;4361246;32;20186;-70
2021/01/08 02:41:23;;;;;;;41.17;18.83;;;1.30;99.90;;;;;;4363061;32;20176;-71
2021/01/08 02:43:51;;;;;;;45.33;19.77;;;1.30;99.90;;;;;;4364530;32;20459;-73
2021/01/08 02:46:19;;;;;;;40.47;18.87;;;1.20;99.90;;;;;;4364401;32;20136;-71
2021/01/08 02:48:46;;;;;;;43.43;19.20;;;1.10;99.90;;;;;;4364263;32;20483;-71
2021/01/08 02:51:12;;;;;;;43.87;20.33;;;1.10;99.90;;;;;;4364821;32;20137;-71
2021/01/08 02:53:40;;;;;;;42.57;19.63;;;1.10;99.90;;;;;;4364194;32;20140;-72
2021/01/08 02:56:11;;;;;;;45.70;19.97;;;1.10;99.90;;;;;;4364116;32;20164;-71
2021/01/08 02:58:40;;;;;;;42.83;19.57;;;1.30;99.90;;;;;;4365662;32;20166;-71
2021/01/08 03:01:08;;;;;;;42.23;19.30;;;1.20;99.90;;;;;;4364267;32;20215;-72
2021/01/08 03:03:35;;;;;;;46.80;19.07;;;1.30;99.90;;;;;;4364168;32;20208;-71
2021/01/08 03:06:02;;;;;;;41.37;18.63;;;1.30;99.90;;;;;;4364107;32;20140;-71
2021/01/08 03:08:30;;;;;;;40.80;18.90;;;1.30;99.90;;;;;;4361356;32;20155;-71
2021/01/08 03:11:06;;;;;;;41.07;18.17;;;1.30;99.90;;;;;;4367938;32;20175;-71
2021/01/08 03:13:34;;;;;;;37.77;17.93;;;1.30;99.90;;;;;;4368104;32;20148;-71
2021/01/08 03:16:01;;;;;;;41.57;18.77;;;1.20;99.90;;;;;;4370000;32;20513;-71
2021/01/08 03:18:27;;;;;;;40.80;18.97;;;1.20;99.90;;;;;;4370636;32;20143;-71
2021/01/08 03:20:54;;;;;;;37.93;18.67;;;1.30;99.90;;;;;;4370248;32;20175;-71
2021/01/08 03:23:21;;;;;;;40.13;18.63;;;1.30;99.90;;;;;;4377149;32;20515;-71
2021/01/08 03:25:47;;;;;;;39.70;17.87;;;1.20;99.90;;;;;;4367866;32;20223;-70
2021/01/08 03:28:14;;;;;;;39.27;17.73;;;1.20;99.90;;;;;;4366756;32;20543;-71
2021/01/08 03:30:40;;;;;;;43.07;18.73;;;1.20;99.90;;;;;;4368259;32;20483;-71
2021/01/08 03:33:06;;;;;;;41.30;18.20;;;1.20;99.90;;;;;;4367051;32;20136;-71
2021/01/08 03:35:34;;;;;;;38.40;18.13;;;1.20;99.90;;;;;;4367016;32;20175;-71
2021/01/08 03:38:01;;;;;;;37.80;17.47;;;1.20;99.90;;;;;;4366911;32;20156;-71
2021/01/08 03:40:27;;;;;;;39.33;18.27;;;1.20;99.90;;;;;;4367102;32;20224;-71
2021/01/08 03:42:53;;;;;;;41.37;19.50;;;1.10;99.90;;;;;;4366882;32;20163;-72
2021/01/08 03:45:20;;;;;;;39.63;18.40;;;1.20;99.90;;;;;;4367068;32;20182;-71
2021/01/08 03:47:46;;;;;;;39.77;18.20;;;1.20;99.90;;;;;;4380083;32;20143;-71
2021/01/08 03:50:13;;;;;;;41.07;18.13;;;1.20;99.90;;;;;;4382732;32;20136;-71
2021/01/08 03:52:39;;;;;;;44.83;18.13;;;1.20;99.90;;;;;;4381586;32;20171;-71
2021/01/08 03:55:07;;;;;;;38.43;18.00;;;1.20;99.90;;;;;;4381717;32;20132;-72
2021/01/08 03:57:33;;;;;;;38.83;17.53;;;1.20;99.90;;;;;;4382872;32;20131;-71
2021/01/08 04:00:00;;;;;;;35.47;16.73;;;1.30;99.90;;;;;;4378253;32;20440;-72
2021/01/08 04:02:26;;;;;;;42.10;18.80;;;1.30;99.90;;;;;;4372379;32;20172;-71
2021/01/08 04:04:53;;;;;;;37.07;17.20;;;1.20;99.90;;;;;;4366388;32;20150;-72
2021/01/08 04:07:19;;;;;;;35.63;16.47;;;1.20;99.90;;;;;;4366764;32;20475;-73
2021/01/08 04:09:46;;;;;;;37.13;17.77;;;1.20;99.90;;;;;;4367919;32;20140;-72
2021/01/08 04:12:13;;;;;;;34.70;17.20;;;1.30;99.90;;;;;;4370127;32;20156;-71
2021/01/08 04:14:39;;;;;;;35.77;16.37;;;1.30;99.90;;;;;;4373946;32;20236;-71
2021/01/08 04:17:06;;;;;;;39.40;18.37;;;1.30;99.90;;;;;;4377866;32;20246;-73
2021/01/08 04:19:33;;;;;;;34.17;16.20;;;1.30;99.90;;;;;;4381275;32;20144;-71
2021/01/08 04:21:59;;;;;;;36.27;16.23;;;1.30;99.90;;;;;;4381295;32;20140;-71
2021/01/08 04:24:26;;;;;;;37.27;17.17;;;1.40;99.90;;;;;;4381327;32;20474;-71
2021/01/08 04:26:53;;;;;;;37.03;17.07;;;1.20;99.90;;;;;;4381318;32;20135;-71
2021/01/08 04:29:20;;;;;;;34.53;17.20;;;1.20;99.90;;;;;;4381969;32;20143;-74
2021/01/08 04:31:46;;;;;;;33.67;16.17;;;1.20;99.90;;;;;;4380820;32;20428;-71
2021/01/08 04:34:13;;;;;;;34.17;16.77;;;1.20;99.90;;;;;;4381558;32;20190;-71
2021/01/08 04:36:39;;;;;;;33.47;16.47;;;1.20;99.90;;;;;;4381050;32;20179;-71
2021/01/08 04:39:06;;;;;;;35.63;17.03;;;1.30;99.90;;;;;;4381595;32;20152;-71
2021/01/08 04:41:35;;;;;;;35.17;16.03;;;1.30;99.90;;;;;;4382471;32;20140;-71
2021/01/08 04:44:03;;;;;;;36.77;16.47;;;1.30;99.90;;;;;;4380795;32;20393;-71
2021/01/08 04:46:32;;;;;;;33.60;16.27;;;1.20;99.90;;;;;;4380694;32;20230;-71
2021/01/08 04:49:00;;;;;;;35.17;16.23;;;1.20;99.90;;;;;;4380863;32;20167;-71
2021/01/08 04:51:29;;;;;;;34.10;16.77;;;1.30;99.90;;;;;;4379401;32;20141;-72
2021/01/08 04:53:56;;;;;;;37.23;16.63;;;1.30;99.90;;;;;;4365947;32;20156;-71
2021/01/08 04:56:26;;;;;;;31.57;15.30;;;1.30;99.90;;;;;;4365904;32;20159;-71
2021/01/08 04:58:53;;;;;;;36.10;17.53;;;1.40;99.90;;;;;;4366287;32;20144;-71
2021/01/08 05:01:20;;;;;;;33.10;16.87;;;1.30;99.90;;;;;;4367173;32;20485;-71
2021/01/08 05:03:47;;;;;;;33.40;15.90;;;1.30;99.90;;;;;;4365223;32;20174;-70
2021/01/08 05:06:14;;;;;;;34.23;15.90;;;1.20;99.90;;;;;;4366036;32;20428;-71
2021/01/08 05:08:40;;;;;;;38.03;16.37;;;1.20;99.90;;;;;;4365550;32;20163;-71
2021/01/08 05:11:29;;;;;;;35.50;16.17;;;1.20;99.90;;;;;;4365655;32;20156;-72
2021/01/08 05:13:59;;;;;;;30.83;15.70;;;1.30;99.90;;;;;;4367104;32;20183;-72
2021/01/08 05:16:27;;;;;;;33.20;16.70;;;1.20;99.90;;;;;;4365663;32;20221;-71
2021/01/08 05:18:56;;;;;;;31.30;15.70;;;1.30;99.90;;;;;;4365052;32;20282;-72
2021/01/08 05:21:26;;;;;;;34.67;15.57;;;1.30;99.90;;;;;;4365121;32;20136;-71
2021/01/08 05:23:54;;;;;;;34.27;16.60;;;1.30;99.90;;;;;;4365912;32;20517;-71
2021/01/08 05:26:22;;;;;;;32.03;15.60;;;1.20;99.90;;;;;;4365423;32;20203;-71
2021/01/08 05:28:57;;;;;;;34.60;16.17;;;1.20;99.90;;;;;;4365329;32;20157;-71
2021/01/08 05:31:26;;;;;;;34.67;15.40;;;1.10;99.90;;;;;;4365827;32;20141;-71
2021/01/08 05:33:54;;;;;;;33.63;15.90;;;1.10;99.90;;;;;;4367205;32;20219;-71
2021/01/08 05:36:22;;;;;;;34.47;16.23;;;1.20;99.90;;;;;;4365818;32;20147;-70
2021/01/08 05:38:54;;;;;;;35.07;16.83;;;1.10;99.90;;;;;;4366588;32;20166;-71
2021/01/08 05:41:25;;;;;;;31.63;15.33;;;1.00;99.90;;;;;;4365154;32;20405;-71
2021/01/08 05:43:52;;;;;;;35.33;17.17;;;1.00;99.90;;;;;;4366081;32;20195;-71
2021/01/08 05:46:37;;;;;;;33.90;15.93;;;1.00;99.90;;;;;;4365070;32;20429;-71
2021/01/08 05:49:07;;;;;;;37.33;16.13;;;1.00;99.90;;;;;;4366759;32;20151;-70
2021/01/08 05:51:37;;;;;;;33.60;16.30;;;1.00;99.90;;;;;;4366056;32;20195;-71
2021/01/08 05:54:04;;;;;;;39.60;17.40;;;1.00;99.90;;;;;;4365289;32;20172;-72
2021/01/08 05:56:38;;;;;;;33.63;16.23;;;1.00;99.90;;;;;;4365803;32;20182;-70
2021/01/08 05:59:08;;;;;;;36.90;16.57;;;1.00;99.90;;;;;;4365237;32;20178;-71
2021/01/08 06:01:39;;;;;;;35.80;16.67;;;1.00;99.90;;;;;;4364689;33;20214;-71
2021/01/08 06:04:07;;;;;;;34.60;15.90;;;1.00;99.90;;;;;;4365943;32;20224;-71
2021/01/08 06:06:40;;;;;;;34.03;16.63;;;1.00;99.90;;;;;;4366275;32;20458;-71
2021/01/08 06:09:11;;;;;;;36.57;16.70;;;1.00;99.90;;;;;;4365152;32;20144;-72
2021/01/08 06:11:40;;;;;;;33.67;15.93;;;1.00;99.90;;;;;;4366043;32;20132;-72
2021/01/08 06:14:10;;;;;;;37.90;17.07;;;0.80;99.90;;;;;;4364801;32;20434;-71
2021/01/08 06:16:44;;;;;;;36.77;16.60;;;0.90;99.90;;;;;;4366153;32;20451;-72
2021/01/08 06:19:13;;;;;;;35.70;16.57;;;1.00;99.90;;;;;;4365502;32;20139;-70
2021/01/08 06:21:44;;;;;;;37.57;16.40;;;0.90;99.90;;;;;;4364595;32;20162;-71
2021/01/08 06:24:13;;;;;;;34.90;16.63;;;0.90;99.90;;;;;;4364591;32;20141;-70
2021/01/08 06:26:41;;;;;;;35.10;16.10;;;0.90;99.90;;;;;;4365160;32;20381;-70
2021/01/08 06:29:17;;;;;;;33.63;16.00;;;0.90;99.90;;;;;;4364637;32;20156;-70
2021/01/08 06:31:48;;;;;;;36.93;17.13;;;0.90;99.90;;;;;;4364451;32;20144;-69
2021/01/08 06:34:21;;;;;;;36.97;17.40;;;0.90;99.90;;;;;;4364831;32;20206;-70
2021/01/08 06:37:06;;;;;;;38.70;17.37;;;0.80;99.90;;;;;;4366366;32;20155;-71
2021/01/08 06:39:44;;;;;;;37.93;16.73;;;0.80;99.90;;;;;;4370939;32;20144;-70
2021/01/08 06:42:25;;;;;;;38.27;17.20;;;0.90;99.90;;;;;;4370380;32;20166;-71
2021/01/08 06:44:54;;;;;;;35.27;16.70;;;0.80;99.90;;;;;;4371254;32;20211;-70
2021/01/08 06:47:21;;;;;;;37.23;17.73;;;0.80;99.90;;;;;;4381190;32;20162;-71
2021/01/08 06:49:53;;;;;;;35.77;16.73;;;0.90;99.90;;;;;;4376470;32;20574;-71
2021/01/08 06:52:23;;;;;;;35.53;16.17;;;0.80;99.90;;;;;;4371094;32;20524;-70
2021/01/08 06:54:54;;;;;;;38.80;16.33;;;0.80;99.90;;;;;;4371757;32;20162;-70
2021/01/08 06:57:22;;;;;;;37.30;17.57;;;0.80;99.90;;;;;;4365504;32;20132;-71
2021/01/08 07:00:07;;;;;;;38.80;16.90;;;0.80;99.90;;;;;;4369965;32;20149;-72
2021/01/08 07:02:36;;;;;;;36.77;15.97;;;0.80;99.90;;;;;;4355541;32;20171;-72
2021/01/08 07:05:04;;;;;;;39.07;16.70;;;0.90;99.90;;;;;;4373564;32;20405;-71
2021/01/08 07:07:31;;;;;;;38.67;16.83;;;0.90;99.90;;;;;;4377370;32;20167;-73
2021/01/08 07:09:58;;;;;;;34.13;16.30;;;0.90;99.90;;;;;;4376639;32;20179;-73
2021/01/08 07:12:26;;;;;;;37.13;16.70;;;0.90;99.90;;;;;;4363930;32;20246;-72
2021/01/08 07:14:54;;;;;;;36.20;17.10;;;0.90;99.90;;;;;;4364006;33;20166;-73
2021/01/08 07:17:31;;;;;;;36.00;16.47;;;0.90;99.90;;;;;;4365118;33;20139;-72
2021/01/08 07:20:03;;;;;;;36.63;16.60;;;0.90;99.90;;;;;;4364908;33;20167;-72
2021/01/08 07:22:37;;;;;;;35.07;16.17;;;0.90;99.90;;;;;;4364119;33;20506;-72
2021/01/08 07:25:11;;;;;;;35.00;16.60;;;1.00;99.90;;;;;;4365647;32;20159;-72
2021/01/08 07:27:41;;;;;;;36.07;16.10;;;1.00;99.90;;;;;;4364284;33;20270;-71
2021/01/08 07:30:11;;;;;;;33.23;16.27;;;1.00;99.90;;;;;;4363697;32;20207;-73
2021/01/08 07:32:47;;;;;;;34.90;16.13;;;0.90;99.90;;;;;;4364134;32;20406;-72
2021/01/08 07:35:23;;;;;;;37.27;16.33;;;0.80;99.90;;;;;;4363825;33;20147;-70
2021/01/08 07:38:08;;;;;;;36.07;16.43;;;0.90;99.90;;;;;;4364364;33;20141;-74
2021/01/08 07:40:37;;;;;;;31.67;16.07;;;1.00;99.90;;;;;;4365265;33;20148;-74
2021/01/08 07:43:05;;;;;;;38.10;16.47;;;1.00;99.90;;;;;;4363569;32;20140;-73
2021/01/08 07:45:53;;;;;;;32.27;15.97;;;1.10;99.90;;;;;;4363904;32;20191;-74
2021/01/08 07:48:34;;;;;;;35.87;15.57;;;1.00;99.90;;;;;;4365281;33;20152;-74
2021/01/08 07:51:06;;;;;;;35.77;16.93;;;1.00;99.90;;;;;;4361988;32;20223;-73
2021/01/08 07:53:47;;;;;;;36.43;16.37;;;1.00;99.90;;;;;;4362625;33;20195;-74
2021/01/08 07:56:17;;;;;;;33.87;16.20;;;1.00;99.90;;;;;;4361257;32;20191;-74
2021/01/08 07:58:45;;;;;;;30.50;15.73;;;0.90;99.90;;;;;;4362684;33;20148;-74
2021/01/08 08:01:13;;;;;;;35.40;16.80;;;1.10;99.90;;;;;;4364044;32;20188;-75
2021/01/08 08:03:40;;;;;;;32.43;15.77;;;1.20;99.90;;;;;;4363954;32;20152;-75
2021/01/08 08:06:08;;;;;;;33.57;15.53;;;1.20;99.90;;;;;;4363217;32;20179;-75
2021/01/08 08:08:42;;;;;;;33.10;16.00;;;1.20;99.90;;;;;;4366133;32;20139;-76
2021/01/08 08:11:14;;;;;;;33.50;16.27;;;1.10;99.90;;;;;;4366213;32;20406;-76
2021/01/08 08:13:40;;;;;;;34.67;16.23;;;1.20;99.90;;;;;;4366011;32;20144;-76
2021/01/08 08:16:07;;;;;;;35.70;16.10;;;1.20;99.90;;;;;;4365977;32;20152;-75
2021/01/08 08:18:51;;;;;;;36.23;16.40;;;1.20;99.90;;;;;;4366174;32;20171;-74
2021/01/08 08:21:21;;;;;;;33.47;16.10;;;1.30;99.90;;;;;;4367827;32;20160;-74
2021/01/08 08:23:57;;;;;;;35.20;15.93;;;1.30;99.90;;;;;;4366973;32;20203;-75
2021/01/08 08:26:24;;;;;;;34.43;15.83;;;1.40;99.90;;;;;;4367646;32;20167;-76
2021/01/08 08:28:57;;;;;;;32.40;15.63;;;1.40;99.90;;;;;;4366032;32;20172;-75
2021/01/08 08:31:28;;;;;;;33.57;16.67;;;1.40;99.90;;;;;;4367296;32;20145;-75
2021/01/08 08:33:57;;;;;;;34.77;16.77;;;1.30;99.90;;;;;;4365346;32;20168;-74
2021/01/08 08:36:25;;;;;;;35.50;16.63;;;1.20;99.90;;;;;;4366584;32;20136;-75
2021/01/08 08:38:58;;;;;;;32.33;16.00;;;1.30;99.90;;;;;;4366071;32;20148;-74
2021/01/08 08:41:25;;;;;;;33.73;16.07;;;1.30;99.90;;;;;;4365887;32;20144;-77
2021/01/08 08:44:09;;;;;;;30.17;15.07;;;1.40;99.90;;;;;;4367326;32;20148;-75
2021/01/08 08:46:44;;;;;;;33.57;15.83;;;1.40;99.90;;;;;;4367399;32;20411;-77
2021/01/08 08:49:13;;;;;;;34.93;16.47;;;1.50;99.90;;;;;;4367397;32;20429;-76
2021/01/08 08:51:51;;;;;;;31.60;15.53;;;1.60;99.90;;;;;;4365455;32;20255;-75
2021/01/08 08:54:19;;;;;;;31.73;15.50;;;1.50;99.90;;;;;;4367431;32;20193;-76
2021/01/08 08:56:57;;;;;;;34.57;15.90;;;1.50;99.90;;;;;;4367233;32;20428;-76
2021/01/08 08:59:43;;;;;;;31.43;15.17;;;1.40;99.90;;;;;;4365751;32;20171;-76
2021/01/08 09:02:30;;;;;;;31.60;15.60;;;1.40;99.90;;;;;;4365834;32;20165;-77
2021/01/08 09:04:59;;;;;;;32.67;16.30;;;1.50;99.90;;;;;;4365143;32;20474;-77
2021/01/08 09:07:45;;;;;;;35.53;16.33;;;1.50;99.90;;;;;;4365751;32;20429;-77
2021/01/08 09:10:14;;;;;;;31.67;16.03;;;1.50;99.90;;;;;;4366837;32;20171;-78
2021/01/08 09:12:48;;;;;;;32.53;16.10;;;1.50;99.90;;;;;;4365504;32;20466;-76
2021/01/08 09:15:23;;;;;;;33.53;16.40;;;1.50;99.90;;;;;;4365482;32;20198;-77
2021/01/08 09:18:01;;;;;;;32.67;15.73;;;1.60;99.90;;;;;;4364788;33;20140;-76
2021/01/08 09:20:28;;;;;;;34.57;15.80;;;1.60;99.90;;;;;;4366393;32;20517;-76
2021/01/08 09:22:55;;;;;;;33.03;15.83;;;1.60;99.90;;;;;;4366386;32;20247;-76
2021/01/08 09:25:23;;;;;;;32.90;15.87;;;1.70;99.90;;;;;;4365530;32;20167;-76
2021/01/08 09:27:50;;;;;;;30.47;15.40;;;1.80;99.90;;;;;;4365316;32;20163;-76
2021/01/08 09:30:17;;;;;;;33.07;16.33;;;1.70;99.90;;;;;;4365917;32;20207;-76
2021/01/08 09:32:43;;;;;;;32.13;16.20;;;1.70;99.90;;;;;;4366561;32;20144;-76
2021/01/08 09:35:10;;;;;;;35.30;16.40;;;1.70;99.90;;;;;;4366455;32;20152;-76
2021/01/08 09:37:38;;;;;;;31.33;15.83;;;1.70;99.90;;;;;;4366641;32;20219;-75
2021/01/08 09:40:10;;;;;;;30.57;15.70;;;1.80;99.90;;;;;;4365235;32;20172;-76
2021/01/08 09:42:37;;;;;;;32.13;15.67;;;1.70;99.90;;;;;;4365192;32;20243;-76
2021/01/08 09:45:24;;;;;;;31.30;15.70;;;1.70;99.90;;;;;;4364600;32;20422;-76
2021/01/08 09:47:52;;;;;;;30.63;16.00;;;1.80;99.90;;;;;;4365115;32;20190;-76
2021/01/08 09:50:29;;;;;;;33.27;16.13;;;1.60;99.90;;;;;;4365064;32;20203;-75
2021/01/08 09:52:59;;;;;;;30.27;14.87;;;1.70;99.90;;;;;;4364997;32;20181;-74
2021/01/08 09:55:30;;;;;;;29.83;15.10;;;1.70;99.90;;;;;;4365108;32;20210;-76
2021/01/08 09:58:02;;;;;;;30.80;14.33;;;1.70;99.90;;;;;;4364949;32;20137;-77
2021/01/08 10:00:38;;;;;;;29.13;15.03;;;1.80;99.90;;;;;;4365293;32;20235;-76
2021/01/08 10:03:16;;;;;;;31.70;15.67;;;1.80;99.90;;;;;;4364835;32;20176;-77
2021/01/08 10:05:42;;;;;;;29.57;14.90;;;1.80;99.90;;;;;;4364883;32;20162;-76
2021/01/08 10:08:20;;;;;;;29.33;14.97;;;1.70;99.90;;;;;;4364789;32;20163;-76
2021/01/08 10:10:47;;;;;;;29.07;15.10;;;1.70;99.90;;;;;;4351859;33;20160;-75
2021/01/08 10:13:16;;;;;;;32.63;15.20;;;1.70;99.90;;;;;;4364597;32;20147;-75
2021/01/08 10:15:48;;;;;;;30.07;15.03;;;1.80;99.90;;;;;;4364626;32;20209;-76
2021/01/08 10:18:20;;;;;;;28.27;15.00;;;1.80;99.90;;;;;;4366389;32;20145;-76
2021/01/08 10:20:47;;;;;;;32.23;15.33;;;2.00;99.90;;;;;;4365535;32;20158;-77
2021/01/08 10:23:15;;;;;;;29.03;14.93;;;2.00;99.90;;;;;;4364760;32;20455;-76
2021/01/08 10:25:43;;;;;;;30.20;15.33;;;2.10;99.90;;;;;;4365703;32;20144;-77
2021/01/08 10:28:19;;;;;;;28.90;14.83;;;2.10;99.90;;;;;;4364906;32;20156;-77
2021/01/08 10:30:47;;;;;;;28.60;14.13;;;2.30;99.90;;;;;;4365622;32;20418;-76
2021/01/08 10:33:22;;;;;;;27.53;14.23;;;2.30;99.90;;;;;;4364846;32;20152;-76
2021/01/08 10:35:51;;;;;;;29.80;14.80;;;2.40;99.90;;;;;;4364010;32;20186;-76
2021/01/08 10:38:17;;;;;;;28.73;14.40;;;2.40;99.90;;;;;;4363573;32;20144;-76
2021/01/08 10:40:44;;;;;;;28.57;14.90;;;2.40;99.90;;;;;;4350308;33;20556;-76
2021/01/08 10:43:11;;;;;;;25.63;13.53;;;2.20;99.90;;;;;;4364105;32;20386;-76
2021/01/08 10:45:38;;;;;;;30.47;13.87;;;2.20;99.90;;;;;;4364314;32;20160;-75
2021/01/08 10:48:05;;;;;;;25.73;13.67;;;2.50;99.90;;;;;;4364162;32;20427;-75
2021/01/08 10:50:35;;;;;;;28.87;13.87;;;2.40;99.90;;;;;;4365907;32;20152;-75
2021/01/08 10:53:02;;;;;;;26.10;13.50;;;2.30;99.90;;;;;;4364243;32;20198;-75
2021/01/08 10:55:29;;;;;;;25.60;13.07;;;2.40;99.90;;;;;;4364281;32;20167;-76
2021/01/08 10:57:56;;;;;;;26.80;13.23;;;2.30;99.90;;;;;;4365166;32;20447;-75
2021/01/08 11:00:23;;;;;;;27.83;13.50;;;2.50;99.90;;;;;;4364870;32;20501;-76
2021/01/08 11:02:51;;;;;;;25.53;12.97;;;2.60;99.90;;;;;;4364961;32;20166;-75
2021/01/08 11:05:19;;;;;;;24.77;12.70;;;2.60;99.90;;;;;;4365208;32;20136;-75
2021/01/08 11:07:45;;;;;;;26.93;12.73;;;2.50;99.90;;;;;;4364189;32;20192;-75
2021/01/08 11:10:14;;;;;;;25.77;12.93;;;2.50;99.90;;;;;;4363537;32;20456;-75
2021/01/08 11:12:41;;;;;;;28.57;13.47;;;2.50;99.90;;;;;;4364553;32;20136;-76
2021/01/08 11:15:08;;;;;;;26.37;13.43;;;2.30;99.90;;;;;;4364448;33;20140;-76
2021/01/08 11:17:35;;;;;;;27.23;13.30;;;2.30;99.90;;;;;;4364052;33;20290;-76
2021/01/08 11:20:04;;;;;;;26.53;13.67;;;2.40;99.90;;;;;;4363962;33;20409;-76
2021/01/08 11:22:30;;;;;;;25.30;13.27;;;2.30;99.90;;;;;;4364049;33;20144;-76
2021/01/08 11:24:57;;;;;;;24.20;12.70;;;2.30;99.90;;;;;;4364070;33;20156;-76
2021/01/08 11:27:24;;;;;;;23.77;12.70;;;2.50;99.90;;;;;;4363472;32;20140;-75
2021/01/08 11:29:50;;;;;;;27.70;13.13;;;2.40;99.90;;;;;;4363819;33;20506;-74
2021/01/08 11:32:17;;;;;;;28.43;13.33;;;2.40;99.90;;;;;;4363913;33;20168;-76
2021/01/08 11:34:44;;;;;;;26.03;13.70;;;2.30;99.90;;;;;;4363874;33;20207;-75
2021/01/08 11:37:10;;;;;;;29.03;13.73;;;2.20;99.90;;;;;;4363888;33;20145;-76
2021/01/08 11:39:46;;;;;;;26.57;13.10;;;2.30;99.90;;;;;;4364342;32;20166;-75
2021/01/08 11:42:14;;;;;;;27.20;13.30;;;2.30;99.90;;;;;;4366877;32;20148;-76
2021/01/08 11:44:41;;;;;;;24.07;12.43;;;2.40;99.90;;;;;;4366879;32;20166;-76
2021/01/08 11:47:08;;;;;;;28.67;13.53;;;2.40;99.90;;;;;;4366771;32;20178;-76
2021/01/08 11:49:35;;;;;;;27.90;14.13;;;2.30;99.90;;;;;;4366484;32;20202;-76
2021/01/08 11:52:02;;;;;;;28.03;13.83;;;2.40;99.90;;;;;;4366143;32;20136;-75
2021/01/08 11:54:29;;;;;;;25.83;13.57;;;2.40;99.90;;;;;;4366877;32;20224;-75
2021/01/08 11:56:55;;;;;;;26.80;13.10;;;2.40;99.90;;;;;;4366581;32;20183;-75
2021/01/08 11:59:22;;;;;;;27.13;13.40;;;2.50;99.90;;;;;;4366246;32;20140;-75
2021/01/08 12:01:48;;;;;;;26.40;13.83;;;2.60;99.90;;;;;;4367226;32;20159;-75
2021/01/08 12:04:15;;;;;;;28.10;14.13;;;2.60;99.90;;;;;;4366440;32;20188;-76
2021/01/08 12:06:42;;;;;;;22.93;12.53;;;2.70;99.90;;;;;;4352414;33;20518;-75
2021/01/08 12:09:10;;;;;;;24.90;13.30;;;2.60;99.90;;;;;;4367450;32;20147;-76
2021/01/08 12:11:36;;;;;;;28.40;14.50;;;2.60;99.90;;;;;;4367575;32;20141;-76
2021/01/08 12:14:03;;;;;;;25.37;13.03;;;2.70;99.90;;;;;;4366182;32;20167;-76
2021/01/08 12:16:31;;;;;;;25.40;13.27;;;2.70;99.90;;;;;;4365975;32;20171;-76
2021/01/08 12:18:59;;;;;;;26.27;12.73;;;2.70;99.90;;;;;;4366173;32;20199;-76
2021/01/08 12:21:29;;;;;;;26.47;12.87;;;2.70;99.90;;;;;;4366309;32;20552;-76
2021/01/08 12:23:56;;;;;;;26.47;13.37;;;2.80;99.90;;;;;;4366221;32;20233;-75
2021/01/08 12:26:23;;;;;;;27.30;13.40;;;2.80;99.90;;;;;;4367533;32;20442;-75
2021/01/08 12:28:50;;;;;;;26.93;13.27;;;2.80;99.90;;;;;;4365972;32;20168;-75
2021/01/08 12:31:26;;;;;;;30.87;14.47;;;2.70;99.90;;;;;;4365965;32;20417;-76
2021/01/08 12:33:53;;;;;;;24.83;12.90;;;2.70;99.90;;;;;;4365987;32;20459;-75
2021/01/08 12:36:21;;;;;;;25.17;13.50;;;2.60;99.90;;;;;;4365852;32;20496;-75
2021/01/08 12:38:48;;;;;;;24.10;12.80;;;2.70;99.90;;;;;;4365998;32;20435;-75
2021/01/08 12:41:15;;;;;;;25.03;13.13;;;2.70;99.90;;;;;;4365338;32;20212;-75
2021/01/08 12:43:42;;;;;;;28.00;13.67;;;2.70;99.90;;;;;;4365372;32;20148;-75
2021/01/08 12:46:08;;;;;;;29.50;14.10;;;2.60;99.90;;;;;;4366021;32;20347;-74